sensor_id;sensor_type;location;lat;lon;timestamp;P1;durP1;ratioP1;P2;durP2;ratioP2
62332;SDS011;48624;49.812;8.562;2022-08-19T00:01:33;22.40;;;17.83;;
62332;SDS011;48624;49.812;8.562;2022-08-19T00:04:01;19.02;;;16.98;;
62332;SDS011;48624;49.812;8.562;2022-08-19T00:06:29;20.77;;;18.55;;
62332;SDS011;48624;49.812;8.562;2022-08-19T00:08:55;19.58;;;17.30;;
62332;SDS011;48624;49.812;8.562;2022-08-19T00:11:21;22.73;;;18.67;;
62332;SDS011;48624;49.812;8.562;2022-08-19T00:13:47;21.65;;;19.45;;
62332;SDS011;48624;49.812;8.562;2022-08-19T00:16:15;21.65;;;18.08;;
62332;SDS011;48624;49.812;8.562;2022-08-19T00:18:43;21.73;;;19.23;;
62332;SDS011;48624;49.812;8.562;2022-08-19T00:21:08;20.15;;;18.05;;
62332;SDS011;48624;49.812;8.562;2022-08-19T00:23:34;23.83;;;19.00;;
62332;SDS011;48624;49.812;8.562;2022-08-19T00:26:01;20.63;;;18.52;;
62332;SDS011;48624;49.812;8.562;2022-08-19T00:28:28;21.27;;;19.00;;
62332;SDS011;48624;49.812;8.562;2022-08-19T00:30:53;20.83;;;18.73;;
62332;SDS011;48624;49.812;8.562;2022-08-19T00:33:19;21.92;;;19.33;;
62332;SDS011;48624;49.812;8.562;2022-08-19T00:35:44;23.38;;;20.98;;
62332;SDS011;48624;49.812;8.562;2022-08-19T00:38:09;23.73;;;20.85;;
62332;SDS011;48624;49.812;8.562;2022-08-19T00:40:35;23.38;;;20.88;;
62332;SDS011;48624;49.812;8.562;2022-08-19T00:43:00;22.55;;;20.13;;
62332;SDS011;48624;49.812;8.562;2022-08-19T00:45:26;21.50;;;19.20;;
62332;SDS011;48624;49.812;8.562;2022-08-19T00:47:53;22.33;;;18.67;;
62332;SDS011;48624;49.812;8.562;2022-08-19T00:50:18;23.95;;;20.60;;
62332;SDS011;48624;49.812;8.562;2022-08-19T00:52:46;21.73;;;19.42;;
62332;SDS011;48624;49.812;8.562;2022-08-19T00:55:16;22.08;;;19.80;;
62332;SDS011;48624;49.812;8.562;2022-08-19T00:57:49;20.20;;;18.10;;
62332;SDS011;48624;49.812;8.562;2022-08-19T01:00:20;22.60;;;19.25;;
62332;SDS011;48624;49.812;8.562;2022-08-19T01:02:47;22.25;;;19.13;;
62332;SDS011;48624;49.812;8.562;2022-08-19T01:05:14;20.83;;;18.42;;
62332;SDS011;48624;49.812;8.562;2022-08-19T01:07:43;20.67;;;18.42;;
62332;SDS011;48624;49.812;8.562;2022-08-19T01:10:11;19.70;;;17.50;;
62332;SDS011;48624;49.812;8.562;2022-08-19T01:12:39;18.65;;;16.75;;
62332;SDS011;48624;49.812;8.562;2022-08-19T01:15:05;19.80;;;17.70;;
62332;SDS011;48624;49.812;8.562;2022-08-19T01:17:33;20.17;;;17.98;;
62332;SDS011;48624;49.812;8.562;2022-08-19T01:20:00;21.08;;;17.13;;
62332;SDS011;48624;49.812;8.562;2022-08-19T01:24:56;19.58;;;16.42;;
62332;SDS011;48624;49.812;8.562;2022-08-19T01:27:22;20.27;;;17.98;;
62332;SDS011;48624;49.812;8.562;2022-08-19T01:29:47;20.77;;;18.25;;
62332;SDS011;48624;49.812;8.562;2022-08-19T01:32:13;20.27;;;18.17;;
62332;SDS011;48624;49.812;8.562;2022-08-19T01:34:40;22.45;;;19.00;;
62332;SDS011;48624;49.812;8.562;2022-08-19T01:37:07;20.98;;;18.77;;
62332;SDS011;48624;49.812;8.562;2022-08-19T01:39:36;22.20;;;19.90;;
62332;SDS011;48624;49.812;8.562;2022-08-19T01:42:03;20.27;;;17.42;;
62332;SDS011;48624;49.812;8.562;2022-08-19T01:44:29;19.55;;;17.27;;
62332;SDS011;48624;49.812;8.562;2022-08-19T01:46:55;18.45;;;16.52;;
62332;SDS011;48624;49.812;8.562;2022-08-19T01:49:21;22.02;;;19.70;;
62332;SDS011;48624;49.812;8.562;2022-08-19T01:51:49;21.70;;;17.38;;
62332;SDS011;48624;49.812;8.562;2022-08-19T01:54:15;20.00;;;17.90;;
62332;SDS011;48624;49.812;8.562;2022-08-19T01:56:43;19.60;;;17.50;;
62332;SDS011;48624;49.812;8.562;2022-08-19T01:59:10;19.77;;;16.92;;
62332;SDS011;48624;49.812;8.562;2022-08-19T02:01:38;22.80;;;17.48;;
62332;SDS011;48624;49.812;8.562;2022-08-19T02:04:03;17.45;;;15.75;;
62332;SDS011;48624;49.812;8.562;2022-08-19T02:06:30;20.20;;;16.85;;
62332;SDS011;48624;49.812;8.562;2022-08-19T02:08:56;20.23;;;17.38;;
62332;SDS011;48624;49.812;8.562;2022-08-19T02:11:25;18.67;;;16.52;;
62332;SDS011;48624;49.812;8.562;2022-08-19T02:13:56;16.98;;;15.18;;
62332;SDS011;48624;49.812;8.562;2022-08-19T02:16:22;21.48;;;17.30;;
62332;SDS011;48624;49.812;8.562;2022-08-19T02:18:47;20.80;;;16.38;;
62332;SDS011;48624;49.812;8.562;2022-08-19T02:21:17;20.92;;;17.48;;
62332;SDS011;48624;49.812;8.562;2022-08-19T02:23:43;18.30;;;15.48;;
62332;SDS011;48624;49.812;8.562;2022-08-19T02:26:09;22.80;;;17.60;;
62332;SDS011;48624;49.812;8.562;2022-08-19T02:28:35;20.85;;;17.05;;
62332;SDS011;48624;49.812;8.562;2022-08-19T02:31:01;21.92;;;19.50;;
62332;SDS011;48624;49.812;8.562;2022-08-19T02:33:27;26.67;;;20.70;;
62332;SDS011;48624;49.812;8.562;2022-08-19T02:35:53;26.70;;;23.88;;
62332;SDS011;48624;49.812;8.562;2022-08-19T02:38:19;27.70;;;23.48;;
62332;SDS011;48624;49.812;8.562;2022-08-19T02:40:55;24.13;;;20.30;;
62332;SDS011;48624;49.812;8.562;2022-08-19T02:43:20;24.42;;;20.73;;
62332;SDS011;48624;49.812;8.562;2022-08-19T02:45:47;24.75;;;20.77;;
62332;SDS011;48624;49.812;8.562;2022-08-19T02:48:14;25.95;;;21.85;;
62332;SDS011;48624;49.812;8.562;2022-08-19T02:50:43;23.73;;;21.08;;
62332;SDS011;48624;49.812;8.562;2022-08-19T02:53:09;21.13;;;18.92;;
62332;SDS011;48624;49.812;8.562;2022-08-19T02:55:35;27.25;;;22.75;;
62332;SDS011;48624;49.812;8.562;2022-08-19T02:58:00;25.35;;;22.27;;
62332;SDS011;48624;49.812;8.562;2022-08-19T03:00:26;25.30;;;21.88;;
62332;SDS011;48624;49.812;8.562;2022-08-19T03:02:52;25.25;;;21.75;;
62332;SDS011;48624;49.812;8.562;2022-08-19T03:05:18;26.17;;;23.20;;
62332;SDS011;48624;49.812;8.562;2022-08-19T03:07:43;25.75;;;22.92;;
62332;SDS011;48624;49.812;8.562;2022-08-19T03:10:09;26.13;;;22.42;;
62332;SDS011;48624;49.812;8.562;2022-08-19T03:12:35;27.60;;;23.63;;
62332;SDS011;48624;49.812;8.562;2022-08-19T03:15:03;29.20;;;24.60;;
62332;SDS011;48624;49.812;8.562;2022-08-19T03:17:30;29.38;;;24.23;;
62332;SDS011;48624;49.812;8.562;2022-08-19T03:19:55;27.23;;;22.00;;
62332;SDS011;48624;49.812;8.562;2022-08-19T03:22:20;27.23;;;22.75;;
62332;SDS011;48624;49.812;8.562;2022-08-19T03:24:45;25.63;;;21.50;;
62332;SDS011;48624;49.812;8.562;2022-08-19T03:27:11;25.83;;;20.88;;
62332;SDS011;48624;49.812;8.562;2022-08-19T03:29:37;27.65;;;20.88;;
62332;SDS011;48624;49.812;8.562;2022-08-19T03:32:03;25.85;;;22.30;;
62332;SDS011;48624;49.812;8.562;2022-08-19T03:34:30;27.38;;;21.10;;
62332;SDS011;48624;49.812;8.562;2022-08-19T03:36:58;27.83;;;22.50;;
62332;SDS011;48624;49.812;8.562;2022-08-19T03:39:27;24.45;;;20.00;;
62332;SDS011;48624;49.812;8.562;2022-08-19T03:41:53;24.67;;;21.52;;
62332;SDS011;48624;49.812;8.562;2022-08-19T03:44:22;21.90;;;19.48;;
62332;SDS011;48624;49.812;8.562;2022-08-19T03:46:49;24.45;;;20.73;;
62332;SDS011;48624;49.812;8.562;2022-08-19T03:49:16;23.27;;;19.27;;
62332;SDS011;48624;49.812;8.562;2022-08-19T03:51:42;25.50;;;20.15;;
62332;SDS011;48624;49.812;8.562;2022-08-19T03:54:10;24.70;;;19.35;;
62332;SDS011;48624;49.812;8.562;2022-08-19T03:56:38;21.92;;;19.42;;
62332;SDS011;48624;49.812;8.562;2022-08-19T03:59:05;22.13;;;18.40;;
62332;SDS011;48624;49.812;8.562;2022-08-19T04:01:32;21.90;;;19.45;;
62332;SDS011;48624;49.812;8.562;2022-08-19T04:03:58;21.58;;;19.30;;
62332;SDS011;48624;49.812;8.562;2022-08-19T04:06:26;22.10;;;19.40;;
62332;SDS011;48624;49.812;8.562;2022-08-19T04:08:55;24.02;;;19.50;;
62332;SDS011;48624;49.812;8.562;2022-08-19T04:11:23;23.75;;;20.02;;
62332;SDS011;48624;49.812;8.562;2022-08-19T04:13:54;21.40;;;18.85;;
62332;SDS011;48624;49.812;8.562;2022-08-19T04:16:20;23.42;;;19.98;;
62332;SDS011;48624;49.812;8.562;2022-08-19T04:18:47;24.67;;;20.33;;
62332;SDS011;48624;49.812;8.562;2022-08-19T04:21:19;23.92;;;21.20;;
62332;SDS011;48624;49.812;8.562;2022-08-19T04:23:47;25.10;;;20.70;;
62332;SDS011;48624;49.812;8.562;2022-08-19T04:26:16;26.40;;;22.02;;
62332;SDS011;48624;49.812;8.562;2022-08-19T04:28:44;23.70;;;20.33;;
62332;SDS011;48624;49.812;8.562;2022-08-19T04:31:13;23.55;;;19.95;;
62332;SDS011;48624;49.812;8.562;2022-08-19T04:33:40;22.35;;;19.80;;
62332;SDS011;48624;49.812;8.562;2022-08-19T04:36:05;27.35;;;21.45;;
62332;SDS011;48624;49.812;8.562;2022-08-19T04:38:31;25.75;;;21.75;;
62332;SDS011;48624;49.812;8.562;2022-08-19T04:40:56;23.13;;;19.95;;
62332;SDS011;48624;49.812;8.562;2022-08-19T04:43:40;21.70;;;19.23;;
62332;SDS011;48624;49.812;8.562;2022-08-19T04:46:07;23.25;;;20.15;;
62332;SDS011;48624;49.812;8.562;2022-08-19T04:48:34;21.67;;;19.35;;
62332;SDS011;48624;49.812;8.562;2022-08-19T04:51:00;20.30;;;18.10;;
62332;SDS011;48624;49.812;8.562;2022-08-19T04:53:28;22.48;;;19.77;;
62332;SDS011;48624;49.812;8.562;2022-08-19T04:55:56;24.50;;;20.13;;
62332;SDS011;48624;49.812;8.562;2022-08-19T04:58:22;19.83;;;17.77;;
62332;SDS011;48624;49.812;8.562;2022-08-19T05:00:49;21.10;;;18.77;;
62332;SDS011;48624;49.812;8.562;2022-08-19T05:03:16;22.38;;;19.60;;
62332;SDS011;48624;49.812;8.562;2022-08-19T05:05:42;22.60;;;18.45;;
62332;SDS011;48624;49.812;8.562;2022-08-19T05:08:09;21.98;;;18.65;;
62332;SDS011;48624;49.812;8.562;2022-08-19T05:10:35;22.83;;;18.35;;
62332;SDS011;48624;49.812;8.562;2022-08-19T05:13:02;20.20;;;17.80;;
62332;SDS011;48624;49.812;8.562;2022-08-19T05:15:28;20.70;;;18.00;;
62332;SDS011;48624;49.812;8.562;2022-08-19T05:17:53;21.15;;;18.83;;
62332;SDS011;48624;49.812;8.562;2022-08-19T05:20:38;20.20;;;17.15;;
62332;SDS011;48624;49.812;8.562;2022-08-19T05:23:22;23.83;;;17.95;;
62332;SDS011;48624;49.812;8.562;2022-08-19T05:25:47;20.65;;;18.13;;
62332;SDS011;48624;49.812;8.562;2022-08-19T05:28:13;19.30;;;16.90;;
62332;SDS011;48624;49.812;8.562;2022-08-19T05:30:38;20.83;;;18.02;;
62332;SDS011;48624;49.812;8.562;2022-08-19T05:33:05;21.60;;;18.08;;
62332;SDS011;48624;49.812;8.562;2022-08-19T05:35:31;21.02;;;17.33;;
62332;SDS011;48624;49.812;8.562;2022-08-19T05:37:56;20.83;;;18.55;;
62332;SDS011;48624;49.812;8.562;2022-08-19T05:40:22;21.95;;;18.35;;
62332;SDS011;48624;49.812;8.562;2022-08-19T05:42:47;19.98;;;17.45;;
62332;SDS011;48624;49.812;8.562;2022-08-19T05:45:14;21.73;;;19.52;;
62332;SDS011;48624;49.812;8.562;2022-08-19T05:47:39;19.90;;;17.58;;
62332;SDS011;48624;49.812;8.562;2022-08-19T05:50:05;20.05;;;17.95;;
62332;SDS011;48624;49.812;8.562;2022-08-19T05:52:30;22.42;;;18.30;;
62332;SDS011;48624;49.812;8.562;2022-08-19T05:54:56;19.05;;;17.08;;
62332;SDS011;48624;49.812;8.562;2022-08-19T05:57:22;22.73;;;18.83;;
62332;SDS011;48624;49.812;8.562;2022-08-19T05:59:48;20.10;;;18.02;;
62332;SDS011;48624;49.812;8.562;2022-08-19T06:02:16;20.60;;;18.45;;
62332;SDS011;48624;49.812;8.562;2022-08-19T06:04:41;18.83;;;16.92;;
62332;SDS011;48624;49.812;8.562;2022-08-19T06:07:10;19.23;;;17.15;;
62332;SDS011;48624;49.812;8.562;2022-08-19T06:09:35;20.88;;;17.10;;
62332;SDS011;48624;49.812;8.562;2022-08-19T06:12:01;19.45;;;17.23;;
62332;SDS011;48624;49.812;8.562;2022-08-19T06:14:32;20.20;;;16.95;;
62332;SDS011;48624;49.812;8.562;2022-08-19T06:16:59;18.42;;;16.60;;
62332;SDS011;48624;49.812;8.562;2022-08-19T06:19:27;19.13;;;16.48;;
62332;SDS011;48624;49.812;8.562;2022-08-19T06:21:58;19.40;;;15.48;;
62332;SDS011;48624;49.812;8.562;2022-08-19T06:24:25;19.67;;;17.58;;
62332;SDS011;48624;49.812;8.562;2022-08-19T06:26:53;16.05;;;14.38;;
62332;SDS011;48624;49.812;8.562;2022-08-19T06:29:20;18.58;;;15.95;;
62332;SDS011;48624;49.812;8.562;2022-08-19T06:31:49;17.88;;;15.80;;
62332;SDS011;48624;49.812;8.562;2022-08-19T06:34:16;17.38;;;15.55;;
62332;SDS011;48624;49.812;8.562;2022-08-19T06:36:47;17.48;;;15.82;;
62332;SDS011;48624;49.812;8.562;2022-08-19T06:39:15;16.90;;;15.20;;
62332;SDS011;48624;49.812;8.562;2022-08-19T06:41:44;21.17;;;15.10;;
62332;SDS011;48624;49.812;8.562;2022-08-19T06:44:11;16.30;;;13.82;;
62332;SDS011;48624;49.812;8.562;2022-08-19T06:46:37;17.05;;;14.63;;
62332;SDS011;48624;49.812;8.562;2022-08-19T06:49:04;15.60;;;14.00;;
62332;SDS011;48624;49.812;8.562;2022-08-19T06:51:31;15.10;;;13.27;;
62332;SDS011;48624;49.812;8.562;2022-08-19T06:53:59;16.98;;;15.18;;
62332;SDS011;48624;49.812;8.562;2022-08-19T06:56:25;13.73;;;12.25;;
62332;SDS011;48624;49.812;8.562;2022-08-19T06:59:05;15.02;;;13.30;;
62332;SDS011;48624;49.812;8.562;2022-08-19T07:01:40;19.00;;;14.20;;
62332;SDS011;48624;49.812;8.562;2022-08-19T07:04:08;15.50;;;13.80;;
62332;SDS011;48624;49.812;8.562;2022-08-19T07:06:35;16.13;;;13.43;;
62332;SDS011;48624;49.812;8.562;2022-08-19T07:09:02;14.73;;;12.15;;
62332;SDS011;48624;49.812;8.562;2022-08-19T07:11:31;13.20;;;11.82;;
62332;SDS011;48624;49.812;8.562;2022-08-19T07:13:57;14.63;;;12.75;;
62332;SDS011;48624;49.812;8.562;2022-08-19T07:16:23;14.60;;;12.70;;
62332;SDS011;48624;49.812;8.562;2022-08-19T07:18:48;13.27;;;11.68;;
62332;SDS011;48624;49.812;8.562;2022-08-19T07:21:17;16.05;;;13.88;;
62332;SDS011;48624;49.812;8.562;2022-08-19T07:23:46;14.40;;;12.27;;
62332;SDS011;48624;49.812;8.562;2022-08-19T07:26:14;11.18;;;10.18;;
62332;SDS011;48624;49.812;8.562;2022-08-19T07:28:42;14.18;;;12.23;;
62332;SDS011;48624;49.812;8.562;2022-08-19T07:31:13;12.75;;;11.45;;
62332;SDS011;48624;49.812;8.562;2022-08-19T07:33:43;16.48;;;12.02;;
62332;SDS011;48624;49.812;8.562;2022-08-19T07:36:10;12.95;;;11.65;;
62332;SDS011;48624;49.812;8.562;2022-08-19T07:38:39;14.35;;;12.85;;
62332;SDS011;48624;49.812;8.562;2022-08-19T07:41:07;13.43;;;12.02;;
62332;SDS011;48624;49.812;8.562;2022-08-19T07:43:33;14.00;;;11.77;;
62332;SDS011;48624;49.812;8.562;2022-08-19T07:45:59;13.60;;;12.20;;
62332;SDS011;48624;49.812;8.562;2022-08-19T07:48:25;12.25;;;10.98;;
62332;SDS011;48624;49.812;8.562;2022-08-19T07:50:52;14.30;;;12.23;;
62332;SDS011;48624;49.812;8.562;2022-08-19T07:53:19;11.75;;;10.55;;
62332;SDS011;48624;49.812;8.562;2022-08-19T07:55:48;13.48;;;11.50;;
62332;SDS011;48624;49.812;8.562;2022-08-19T07:58:15;12.13;;;10.52;;
62332;SDS011;48624;49.812;8.562;2022-08-19T08:00:43;10.35;;;9.35;;
62332;SDS011;48624;49.812;8.562;2022-08-19T08:03:10;10.65;;;9.30;;
62332;SDS011;48624;49.812;8.562;2022-08-19T08:05:35;10.60;;;9.38;;
62332;SDS011;48624;49.812;8.562;2022-08-19T08:08:19;9.40;;;8.48;;
62332;SDS011;48624;49.812;8.562;2022-08-19T08:11:04;9.30;;;8.40;;
62332;SDS011;48624;49.812;8.562;2022-08-19T08:13:30;8.32;;;7.32;;
62332;SDS011;48624;49.812;8.562;2022-08-19T08:15:56;9.63;;;7.22;;
62332;SDS011;48624;49.812;8.562;2022-08-19T08:18:24;9.82;;;7.25;;
62332;SDS011;48624;49.812;8.562;2022-08-19T08:20:49;6.82;;;6.20;;
62332;SDS011;48624;49.812;8.562;2022-08-19T08:23:15;8.90;;;6.75;;
62332;SDS011;48624;49.812;8.562;2022-08-19T08:25:55;8.10;;;6.45;;
62332;SDS011;48624;49.812;8.562;2022-08-19T08:28:22;10.00;;;6.45;;
62332;SDS011;48624;49.812;8.562;2022-08-19T08:30:49;7.97;;;7.00;;
62332;SDS011;48624;49.812;8.562;2022-08-19T08:33:19;7.38;;;5.80;;
62332;SDS011;48624;49.812;8.562;2022-08-19T08:35:46;10.20;;;8.18;;
62332;SDS011;48624;49.812;8.562;2022-08-19T08:38:12;9.80;;;6.97;;
62332;SDS011;48624;49.812;8.562;2022-08-19T08:43:08;7.13;;;6.03;;
62332;SDS011;48624;49.812;8.562;2022-08-19T08:45:47;8.27;;;7.38;;
62332;SDS011;48624;49.812;8.562;2022-08-19T08:48:22;8.35;;;6.75;;
62332;SDS011;48624;49.812;8.562;2022-08-19T08:51:14;7.50;;;6.90;;
62332;SDS011;48624;49.812;8.562;2022-08-19T08:53:45;7.82;;;6.93;;
62332;SDS011;48624;49.812;8.562;2022-08-19T08:56:13;9.07;;;7.10;;
62332;SDS011;48624;49.812;8.562;2022-08-19T08:58:42;8.00;;;5.63;;
62332;SDS011;48624;49.812;8.562;2022-08-19T09:01:16;7.32;;;5.72;;
62332;SDS011;48624;49.812;8.562;2022-08-19T09:03:42;7.65;;;6.00;;
62332;SDS011;48624;49.812;8.562;2022-08-19T09:06:29;5.70;;;5.18;;
62332;SDS011;48624;49.812;8.562;2022-08-19T09:09:05;8.27;;;5.68;;
62332;SDS011;48624;49.812;8.562;2022-08-19T09:16:57;8.45;;;5.32;;
62332;SDS011;48624;49.812;8.562;2022-08-19T09:19:23;5.43;;;4.93;;
62332;SDS011;48624;49.812;8.562;2022-08-19T09:21:48;6.63;;;5.30;;
62332;SDS011;48624;49.812;8.562;2022-08-19T09:24:15;7.78;;;6.15;;
62332;SDS011;48624;49.812;8.562;2022-08-19T09:26:40;6.63;;;5.70;;
62332;SDS011;48624;49.812;8.562;2022-08-19T09:29:08;5.85;;;5.28;;
62332;SDS011;48624;49.812;8.562;2022-08-19T09:31:35;6.72;;;5.28;;
62332;SDS011;48624;49.812;8.562;2022-08-19T09:34:00;7.00;;;5.78;;
62332;SDS011;48624;49.812;8.562;2022-08-19T09:36:29;7.32;;;6.47;;
62332;SDS011;48624;49.812;8.562;2022-08-19T09:38:58;6.65;;;5.93;;
62332;SDS011;48624;49.812;8.562;2022-08-19T09:41:25;6.78;;;5.97;;
62332;SDS011;48624;49.812;8.562;2022-08-19T09:43:57;6.75;;;5.75;;
62332;SDS011;48624;49.812;8.562;2022-08-19T09:46:24;8.52;;;6.63;;
62332;SDS011;48624;49.812;8.562;2022-08-19T09:48:52;5.82;;;5.22;;
62332;SDS011;48624;49.812;8.562;2022-08-19T09:51:20;6.38;;;5.78;;
62332;SDS011;48624;49.812;8.562;2022-08-19T09:53:48;7.57;;;5.43;;
62332;SDS011;48624;49.812;8.562;2022-08-19T09:56:19;10.00;;;6.47;;
62332;SDS011;48624;49.812;8.562;2022-08-19T09:58:45;6.95;;;6.25;;
62332;SDS011;48624;49.812;8.562;2022-08-19T10:01:15;8.18;;;5.80;;
62332;SDS011;48624;49.812;8.562;2022-08-19T10:03:46;6.47;;;5.90;;
62332;SDS011;48624;49.812;8.562;2022-08-19T10:06:13;7.20;;;6.40;;
62332;SDS011;48624;49.812;8.562;2022-08-19T10:08:39;8.02;;;7.22;;
62332;SDS011;48624;49.812;8.562;2022-08-19T10:11:04;8.40;;;7.32;;
62332;SDS011;48624;49.812;8.562;2022-08-19T10:13:30;10.27;;;7.85;;
62332;SDS011;48624;49.812;8.562;2022-08-19T10:16:02;7.80;;;7.10;;
62332;SDS011;48624;49.812;8.562;2022-08-19T10:18:33;8.55;;;7.53;;
62332;SDS011;48624;49.812;8.562;2022-08-19T10:21:12;7.85;;;7.15;;
62332;SDS011;48624;49.812;8.562;2022-08-19T10:23:44;7.78;;;7.03;;
62332;SDS011;48624;49.812;8.562;2022-08-19T10:26:12;8.07;;;7.38;;
62332;SDS011;48624;49.812;8.562;2022-08-19T10:28:40;8.02;;;7.13;;
62332;SDS011;48624;49.812;8.562;2022-08-19T10:31:18;9.23;;;8.27;;
62332;SDS011;48624;49.812;8.562;2022-08-19T10:33:47;9.50;;;8.52;;
62332;SDS011;48624;49.812;8.562;2022-08-19T10:36:17;7.97;;;7.22;;
62332;SDS011;48624;49.812;8.562;2022-08-19T10:38:48;7.07;;;6.47;;
62332;SDS011;48624;49.812;8.562;2022-08-19T10:41:17;6.80;;;6.20;;
62332;SDS011;48624;49.812;8.562;2022-08-19T10:43:45;8.55;;;6.07;;
62332;SDS011;48624;49.812;8.562;2022-08-19T10:46:11;7.90;;;7.13;;
62332;SDS011;48624;49.812;8.562;2022-08-19T10:48:38;9.02;;;6.80;;
62332;SDS011;48624;49.812;8.562;2022-08-19T10:51:05;7.75;;;6.95;;
62332;SDS011;48624;49.812;8.562;2022-08-19T10:53:59;8.82;;;7.93;;
62332;SDS011;48624;49.812;8.562;2022-08-19T10:56:28;8.02;;;7.35;;
62332;SDS011;48624;49.812;8.562;2022-08-19T10:59:12;9.18;;;8.05;;
62332;SDS011;48624;49.812;8.562;2022-08-19T11:01:39;9.18;;;8.27;;
62332;SDS011;48624;49.812;8.562;2022-08-19T11:04:06;10.32;;;9.52;;
62332;SDS011;48624;49.812;8.562;2022-08-19T11:06:35;11.85;;;10.32;;
62332;SDS011;48624;49.812;8.562;2022-08-19T11:09:03;11.98;;;10.75;;
62332;SDS011;48624;49.812;8.562;2022-08-19T11:11:30;12.02;;;10.93;;
62332;SDS011;48624;49.812;8.562;2022-08-19T11:13:57;11.13;;;10.13;;
62332;SDS011;48624;49.812;8.562;2022-08-19T11:16:24;8.95;;;8.25;;
62332;SDS011;48624;49.812;8.562;2022-08-19T11:18:52;10.85;;;7.82;;
62332;SDS011;48624;49.812;8.562;2022-08-19T11:21:21;11.60;;;10.45;;
62332;SDS011;48624;49.812;8.562;2022-08-19T11:23:49;11.15;;;10.27;;
62332;SDS011;48624;49.812;8.562;2022-08-19T11:26:17;11.07;;;10.18;;
62332;SDS011;48624;49.812;8.562;2022-08-19T11:28:43;12.27;;;11.25;;
62332;SDS011;48624;49.812;8.562;2022-08-19T11:31:14;12.35;;;11.18;;
62332;SDS011;48624;49.812;8.562;2022-08-19T11:33:41;10.85;;;9.95;;
62332;SDS011;48624;49.812;8.562;2022-08-19T11:36:07;10.15;;;9.25;;
62332;SDS011;48624;49.812;8.562;2022-08-19T11:38:33;9.85;;;9.05;;
62332;SDS011;48624;49.812;8.562;2022-08-19T11:41:01;9.73;;;8.93;;
62332;SDS011;48624;49.812;8.562;2022-08-19T11:43:29;9.55;;;8.75;;
62332;SDS011;48624;49.812;8.562;2022-08-19T11:45:55;9.32;;;8.52;;
62332;SDS011;48624;49.812;8.562;2022-08-19T11:48:21;10.90;;;9.98;;
62332;SDS011;48624;49.812;8.562;2022-08-19T11:50:51;11.32;;;10.32;;
62332;SDS011;48624;49.812;8.562;2022-08-19T11:53:19;12.00;;;11.00;;
62332;SDS011;48624;49.812;8.562;2022-08-19T11:55:45;10.10;;;9.30;;
62332;SDS011;48624;49.812;8.562;2022-08-19T11:58:17;10.43;;;9.32;;
62332;SDS011;48624;49.812;8.562;2022-08-19T12:00:42;10.68;;;9.48;;
62332;SDS011;48624;49.812;8.562;2022-08-19T12:03:09;10.57;;;9.57;;
62332;SDS011;48624;49.812;8.562;2022-08-19T12:05:36;11.68;;;10.55;;
62332;SDS011;48624;49.812;8.562;2022-08-19T12:08:02;11.52;;;10.32;;
62332;SDS011;48624;49.812;8.562;2022-08-19T12:10:28;11.63;;;10.52;;
62332;SDS011;48624;49.812;8.562;2022-08-19T12:12:54;9.70;;;8.75;;
62332;SDS011;48624;49.812;8.562;2022-08-19T12:15:19;9.07;;;8.30;;
62332;SDS011;48624;49.812;8.562;2022-08-19T12:17:44;8.15;;;7.35;;
62332;SDS011;48624;49.812;8.562;2022-08-19T12:20:10;8.18;;;7.45;;
62332;SDS011;48624;49.812;8.562;2022-08-19T12:22:38;8.52;;;7.55;;
62332;SDS011;48624;49.812;8.562;2022-08-19T12:25:06;7.00;;;6.38;;
62332;SDS011;48624;49.812;8.562;2022-08-19T12:27:33;8.10;;;7.40;;
62332;SDS011;48624;49.812;8.562;2022-08-19T12:30:00;6.55;;;5.95;;
62332;SDS011;48624;49.812;8.562;2022-08-19T12:32:26;6.38;;;5.60;;
62332;SDS011;48624;49.812;8.562;2022-08-19T12:34:51;6.68;;;6.18;;
62332;SDS011;48624;49.812;8.562;2022-08-19T12:37:17;7.00;;;6.40;;
62332;SDS011;48624;49.812;8.562;2022-08-19T12:39:43;7.18;;;6.57;;
62332;SDS011;48624;49.812;8.562;2022-08-19T12:42:09;5.93;;;5.43;;
62332;SDS011;48624;49.812;8.562;2022-08-19T12:44:37;6.30;;;5.70;;
62332;SDS011;48624;49.812;8.562;2022-08-19T12:47:08;5.80;;;5.40;;
62332;SDS011;48624;49.812;8.562;2022-08-19T12:49:39;5.78;;;5.15;;
62332;SDS011;48624;49.812;8.562;2022-08-19T12:52:04;5.55;;;5.07;;
62332;SDS011;48624;49.812;8.562;2022-08-19T12:54:30;5.13;;;4.72;;
62332;SDS011;48624;49.812;8.562;2022-08-19T12:56:56;4.63;;;4.22;;
62332;SDS011;48624;49.812;8.562;2022-08-19T12:59:23;5.97;;;3.97;;
62332;SDS011;48624;49.812;8.562;2022-08-19T13:01:48;4.57;;;3.80;;
62332;SDS011;48624;49.812;8.562;2022-08-19T13:04:14;4.45;;;4.15;;
62332;SDS011;48624;49.812;8.562;2022-08-19T13:06:41;6.10;;;4.30;;
62332;SDS011;48624;49.812;8.562;2022-08-19T13:09:07;8.43;;;4.07;;
62332;SDS011;48624;49.812;8.562;2022-08-19T13:11:33;4.03;;;3.72;;
62332;SDS011;48624;49.812;8.562;2022-08-19T13:14:02;6.55;;;4.05;;
62332;SDS011;48624;49.812;8.562;2022-08-19T13:16:29;4.18;;;3.88;;
62332;SDS011;48624;49.812;8.562;2022-08-19T13:19:16;4.45;;;4.05;;
62332;SDS011;48624;49.812;8.562;2022-08-19T13:21:40;4.00;;;3.70;;
62332;SDS011;48624;49.812;8.562;2022-08-19T13:24:05;4.13;;;3.83;;
62332;SDS011;48624;49.812;8.562;2022-08-19T13:26:31;5.25;;;4.28;;
62332;SDS011;48624;49.812;8.562;2022-08-19T13:29:00;5.15;;;4.30;;
62332;SDS011;48624;49.812;8.562;2022-08-19T13:31:44;4.30;;;4.00;;
62332;SDS011;48624;49.812;8.562;2022-08-19T13:34:32;4.00;;;3.60;;
62332;SDS011;48624;49.812;8.562;2022-08-19T13:37:00;4.15;;;3.78;;
62332;SDS011;48624;49.812;8.562;2022-08-19T13:39:28;4.60;;;4.20;;
62332;SDS011;48624;49.812;8.562;2022-08-19T13:41:54;4.60;;;3.80;;
62332;SDS011;48624;49.812;8.562;2022-08-19T13:44:19;3.60;;;3.25;;
62332;SDS011;48624;49.812;8.562;2022-08-19T13:46:46;3.78;;;3.47;;
62332;SDS011;48624;49.812;8.562;2022-08-19T13:49:14;4.45;;;4.03;;
62332;SDS011;48624;49.812;8.562;2022-08-19T13:51:40;4.10;;;3.78;;
62332;SDS011;48624;49.812;8.562;2022-08-19T13:54:08;4.85;;;4.30;;
62332;SDS011;48624;49.812;8.562;2022-08-19T13:56:34;4.47;;;4.07;;
62332;SDS011;48624;49.812;8.562;2022-08-19T13:59:04;4.03;;;3.63;;
62332;SDS011;48624;49.812;8.562;2022-08-19T14:01:29;3.70;;;3.40;;
62332;SDS011;48624;49.812;8.562;2022-08-19T14:03:55;5.50;;;4.80;;
62332;SDS011;48624;49.812;8.562;2022-08-19T14:06:20;4.60;;;4.20;;
62332;SDS011;48624;49.812;8.562;2022-08-19T14:08:47;4.95;;;4.55;;
62332;SDS011;48624;49.812;8.562;2022-08-19T14:11:12;5.13;;;4.63;;
62332;SDS011;48624;49.812;8.562;2022-08-19T14:13:38;5.32;;;4.93;;
62332;SDS011;48624;49.812;8.562;2022-08-19T14:16:08;5.22;;;4.70;;
62332;SDS011;48624;49.812;8.562;2022-08-19T14:18:35;6.05;;;5.55;;
62332;SDS011;48624;49.812;8.562;2022-08-19T14:21:04;6.57;;;6.00;;
62332;SDS011;48624;49.812;8.562;2022-08-19T14:23:30;5.13;;;4.72;;
62332;SDS011;48624;49.812;8.562;2022-08-19T14:26:07;4.85;;;4.43;;
62332;SDS011;48624;49.812;8.562;2022-08-19T14:28:34;7.40;;;4.35;;
62332;SDS011;48624;49.812;8.562;2022-08-19T14:31:00;4.38;;;4.03;;
62332;SDS011;48624;49.812;8.562;2022-08-19T14:33:25;6.03;;;3.60;;
62332;SDS011;48624;49.812;8.562;2022-08-19T14:35:51;4.13;;;3.83;;
62332;SDS011;48624;49.812;8.562;2022-08-19T14:38:17;4.78;;;3.97;;
62332;SDS011;48624;49.812;8.562;2022-08-19T14:40:43;5.15;;;4.75;;
62332;SDS011;48624;49.812;8.562;2022-08-19T14:43:10;5.95;;;5.35;;
62332;SDS011;48624;49.812;8.562;2022-08-19T14:45:37;4.85;;;4.35;;